Time;durP1;ratioP1;P1;durP2;ratioP2;P2;SDS_P1;SDS_P2;PMS_P1;PMS_P2;Temp;Humidity;BMP_temperature;BMP_pressure;BME280_temperature;BME280_humidity;BME280_pressure;Samples;Min_cycle;Max_cycle;Signal;HPM_P1;HPM_P2
2024/01/30 00:01:50;;;;;;;11.18;4.65;;;;;;;1.89;80.17;102554.53;4968006;28;20402;-66
2024/01/30 00:04:16;;;;;;;12.23;4.30;;;;;;;1.90;79.90;102550.25;4956777;28;20122;-66
2024/01/30 00:09:11;;;;;;;12.60;4.97;;;;;;;1.83;80.27;102556.50;5107829;27;20355;-68
2024/01/30 00:11:37;;;;;;;14.17;5.53;;;;;;;1.78;80.41;102549.91;5092746;28;20373;-67
2024/01/30 00:14:04;;;;;;;13.50;4.47;;;;;;;1.78;80.75;102547.28;5088065;28;20039;-66
2024/01/30 00:16:29;;;;;;;13.50;4.45;;;;;;;1.78;80.44;102542.09;5087080;28;20468;-66
2024/01/30 00:18:55;;;;;;;10.23;4.37;;;;;;;1.80;80.45;102537.97;5087450;28;20064;-66
2024/01/30 00:21:21;;;;;;;13.82;4.50;;;;;;;1.82;80.89;102540.75;5087333;28;20484;-66
2024/01/30 00:23:47;;;;;;;14.82;4.82;;;;;;;1.84;81.02;102542.72;5087221;28;20048;-65
2024/01/30 00:26:14;;;;;;;12.07;4.50;;;;;;;1.86;80.68;102546.41;5087129;28;20021;-65
2024/01/30 00:28:40;;;;;;;11.32;4.00;;;;;;;1.88;80.59;102542.28;5087393;28;20038;-65
2024/01/30 00:31:06;;;;;;;10.10;4.00;;;;;;;1.90;80.63;102534.63;5087040;28;20050;-65
2024/01/30 00:33:31;;;;;;;13.47;4.10;;;;;;;1.95;80.63;102547.38;5087017;28;20029;-65
2024/01/30 00:35:56;;;;;;;10.30;3.77;;;;;;;1.97;80.21;102543.25;5086903;28;20552;-66
2024/01/30 00:38:22;;;;;;;10.97;4.00;;;;;;;2.01;80.29;102537.59;5087006;28;20040;-66
2024/01/30 00:40:48;;;;;;;13.60;4.25;;;;;;;2.02;80.58;102542.00;5086782;28;20040;-66
2024/01/30 00:43:13;;;;;;;11.47;3.93;;;;;;;2.02;80.72;102539.41;5086873;28;20032;-67
2024/01/30 00:45:38;;;;;;;15.13;4.63;;;;;;;2.04;80.80;102534.34;5086798;28;20131;-65
2024/01/30 00:48:04;;;;;;;12.60;4.20;;;;;;;2.07;80.29;102534.69;5086829;28;20681;-66
2024/01/30 00:50:29;;;;;;;13.30;4.25;;;;;;;2.09;80.57;102531.47;5086856;28;20090;-67
2024/01/30 00:52:55;;;;;;;11.43;4.63;;;;;;;2.11;80.43;102539.44;5086730;28;20074;-66
2024/01/30 01:00:20;;;;;;;11.40;4.60;;;;;;;2.09;80.59;102531.47;5103947;27;20422;-67
2024/01/30 01:02:46;;;;;;;10.93;4.63;;;;;;;2.10;81.12;102530.72;5093882;27;20489;-67
2024/01/30 01:05:12;;;;;;;13.07;4.43;;;;;;;2.16;81.02;102527.81;5087296;28;20040;-67
2024/01/30 01:07:37;;;;;;;13.03;4.43;;;;;;;2.20;80.81;102526.44;5087667;28;20051;-68
2024/01/30 01:10:03;;;;;;;12.40;4.07;;;;;;;2.24;81.11;102529.50;5095423;28;20123;-67
2024/01/30 01:12:29;;;;;;;12.68;4.40;;;;;;;2.24;81.14;102531.19;5090664;28;20032;-68
2024/01/30 01:14:54;;;;;;;13.30;4.17;;;;;;;2.27;80.62;102534.13;5087397;28;20040;-67
2024/01/30 01:17:19;;;;;;;10.87;4.00;;;;;;;2.27;80.98;102534.13;5088201;28;20041;-68
2024/01/30 01:19:45;;;;;;;13.60;4.10;;;;;;;2.29;81.13;102538.72;5087429;28;20491;-67
2024/01/30 01:22:10;;;;;;;10.87;4.17;;;;;;;2.29;81.23;102538.72;5087336;28;20481;-70
2024/01/30 01:24:36;;;;;;;13.07;3.87;;;;;;;2.31;80.76;102538.88;5087216;28;20473;-68
2024/01/30 01:27:02;;;;;;;13.03;4.10;;;;;;;2.33;80.48;102539.94;5086724;28;20381;-68
2024/01/30 01:31:58;;;;;;;10.05;4.13;;;;;;;2.35;80.62;102533.22;5107807;27;20409;-66
2024/01/30 01:34:24;;;;;;;10.38;3.63;;;;;;;2.36;80.42;102541.19;5093988;28;20032;-66
2024/01/30 01:36:50;;;;;;;14.90;4.80;;;;;;;2.36;80.28;102533.38;5087183;28;20031;-65
2024/01/30 01:39:16;;;;;;;11.13;4.05;;;;;;;2.36;80.23;102535.06;5087275;28;20032;-67
2024/01/30 01:41:41;;;;;;;11.07;4.35;;;;;;;2.36;80.12;102535.06;5067351;28;20551;-66
2024/01/30 01:44:07;;;;;;;10.17;4.03;;;;;;;2.38;79.97;102533.50;5067419;28;20040;-66
2024/01/30 01:46:33;;;;;;;10.63;4.05;;;;;;;2.38;80.00;102533.50;5066862;28;20397;-66
2024/01/30 01:49:00;;;;;;;12.77;3.80;;;;;;;2.38;80.14;102529.22;5066976;28;20047;-66
2024/01/30 01:51:27;;;;;;;12.07;4.63;;;;;;;2.38;80.25;102528.28;5066738;28;20111;-65
2024/01/30 01:53:54;;;;;;;11.18;3.90;;;;;;;2.38;80.62;102518.78;5065196;28;20033;-66
2024/01/30 01:56:20;;;;;;;11.82;4.22;;;;;;;2.43;80.18;102521.84;5066389;28;20124;-67
2024/01/30 01:58:47;;;;;;;9.13;3.58;;;;;;;2.44;80.38;102524.63;5067031;28;20044;-67
2024/01/30 02:01:13;;;;;;;12.03;4.13;;;;;;;2.43;80.42;102517.56;5070299;28;20605;-66
2024/01/30 02:03:40;;;;;;;10.55;4.07;;;;;;;2.43;79.80;102517.56;5066825;28;20401;-67
2024/01/30 02:06:06;;;;;;;9.60;3.88;;;;;;;2.42;80.33;102525.22;5065948;28;20475;-68
2024/01/30 02:08:31;;;;;;;11.10;3.50;;;;;;;2.43;79.86;102527.06;5066410;28;20041;-66
2024/01/30 02:10:57;;;;;;;11.05;4.53;;;;;;;2.42;79.77;102517.41;5066261;28;20052;-66
2024/01/30 02:13:22;;;;;;;12.10;4.60;;;;;;;2.40;79.93;102526.78;5068317;28;20063;-67
2024/01/30 02:15:51;;;;;;;9.97;3.93;;;;;;;2.37;79.81;102519.53;5066391;28;20111;-66
2024/01/30 02:18:16;;;;;;;13.02;4.38;;;;;;;2.36;80.14;102519.41;5066466;28;20090;-66
2024/01/30 02:20:43;;;;;;;11.57;3.87;;;;;;;2.36;80.44;102524.63;5066834;28;20029;-66
2024/01/30 02:23:10;;;;;;;12.90;4.53;;;;;;;2.33;80.29;102532.13;5058184;28;20114;-66
2024/01/30 02:25:46;;;;;;;13.40;4.45;;;;;;;2.33;80.52;102533.03;5066012;28;20059;-66
2024/01/30 02:28:14;;;;;;;13.77;4.43;;;;;;;2.33;80.21;102537.34;5066546;28;20029;-67
2024/01/30 02:30:40;;;;;;;13.27;4.37;;;;;;;2.31;80.61;102532.00;5065791;28;20041;-66
2024/01/30 02:33:05;;;;;;;11.43;3.75;;;;;;;2.32;80.67;102530.31;5066057;28;20516;-69
2024/01/30 02:35:31;;;;;;;10.83;4.27;;;;;;;2.31;80.24;102529.38;5046599;28;20085;-67
2024/01/30 02:37:56;;;;;;;10.40;3.97;;;;;;;2.32;80.69;102527.69;5025564;28;20444;-67
2024/01/30 02:40:22;;;;;;;11.90;3.78;;;;;;;2.32;80.44;102531.19;5026225;28;20607;-66
2024/01/30 02:42:47;;;;;;;11.97;4.00;;;;;;;2.33;80.37;102537.34;5016005;28;20049;-66
2024/01/30 02:45:13;;;;;;;12.30;4.67;;;;;;;2.32;80.81;102525.09;5012923;28;20033;-67
2024/01/30 02:47:38;;;;;;;10.57;4.13;;;;;;;2.31;80.83;102518.03;5013101;28;20088;-66
2024/01/30 02:50:05;;;;;;;11.75;3.88;;;;;;;2.29;80.94;102519.53;5036011;28;20046;-66
2024/01/30 02:52:30;;;;;;;10.95;4.18;;;;;;;2.23;80.87;102519.84;5012875;28;20506;-66
2024/01/30 02:54:55;;;;;;;13.13;4.23;;;;;;;2.22;81.13;102515.38;5010114;28;20038;-68
2024/01/30 02:57:21;;;;;;;14.43;4.20;;;;;;;2.21;80.75;102510.03;5021052;28;20498;-66
2024/01/30 02:59:46;;;;;;;15.70;4.73;;;;;;;2.18;80.72;102508.94;5012629;28;20101;-66
2024/01/30 03:04:30;;;;;;;11.25;3.88;;;;;;;2.12;81.19;102513.53;5113602;27;20362;-67
2024/01/30 03:06:55;;;;;;;14.52;5.18;;;;;;;2.08;81.32;102510.44;5107534;28;20463;-68
2024/01/30 03:09:21;;;;;;;12.70;3.80;;;;;;;2.06;81.58;102501.56;5106743;28;20035;-68
2024/01/30 03:11:46;;;;;;;11.15;4.30;;;;;;;2.01;81.70;102506.31;5089351;28;20430;-67
2024/01/30 03:14:12;;;;;;;10.17;3.87;;;;;;;1.99;81.63;102506.91;5087497;28;20054;-67
2024/01/30 03:19:10;;;;;;;10.70;4.78;;;;;;;1.91;81.78;102500.91;5096208;27;20364;-69
2024/01/30 03:21:35;;;;;;;11.90;4.18;;;;;;;1.86;82.38;102502.13;5068303;28;20403;-69
2024/01/30 03:24:01;;;;;;;10.20;4.17;;;;;;;1.84;82.49;102507.94;5067444;28;20397;-67
2024/01/30 03:28:57;;;;;;;12.38;4.70;;;;;;;1.78;82.73;102505.59;5004128;28;20373;-68
2024/01/30 03:31:22;;;;;;;12.40;4.67;;;;;;;1.76;83.18;102498.41;4991253;28;20026;-67
2024/01/30 03:33:48;;;;;;;11.07;4.90;;;;;;;1.71;83.13;102491.06;4984875;28;20117;-68
2024/01/30 03:36:15;;;;;;;11.27;4.97;;;;;;;1.73;83.44;102492.09;4984323;28;20031;-68
2024/01/30 03:38:40;;;;;;;13.82;4.85;;;;;;;1.72;83.33;102484.16;4984619;28;20513;-67
2024/01/30 03:41:08;;;;;;;10.20;4.13;;;;;;;1.72;82.96;102492.91;4984472;28;20212;-67
2024/01/30 03:43:34;;;;;;;11.15;4.32;;;;;;;1.71;83.65;102490.13;4992772;28;20069;-69
2024/01/30 03:46:01;;;;;;;11.17;4.07;;;;;;;1.67;83.45;102493.19;4983613;28;20489;-70
2024/01/30 03:48:26;;;;;;;10.98;4.65;;;;;;;1.65;83.41;102495.63;4993099;28;20394;-68
2024/01/30 03:50:51;;;;;;;12.60;4.00;;;;;;;1.64;83.33;102498.97;4983983;28;20125;-69
2024/01/30 03:53:17;;;;;;;11.97;4.50;;;;;;;1.64;83.88;102492.84;4971727;28;20046;-68
2024/01/30 03:55:43;;;;;;;11.60;4.25;;;;;;;1.65;84.15;102494.69;4981205;28;20050;-68
2024/01/30 03:58:08;;;;;;;10.27;4.17;;;;;;;1.67;83.70;102504.53;5004038;28;20061;-68
2024/01/30 04:00:33;;;;;;;13.57;4.87;;;;;;;1.67;84.35;102496.72;4992021;28;20483;-67
2024/01/30 04:02:59;;;;;;;14.27;3.93;;;;;;;1.69;83.88;102495.16;4983659;28;20100;-68
2024/01/30 04:05:24;;;;;;;10.90;3.77;;;;;;;1.71;83.87;102490.13;4978928;28;20051;-73
2024/01/30 04:07:50;;;;;;;9.50;3.90;;;;;;;1.72;83.45;102492.91;4975631;28;20054;-67
2024/01/30 04:10:15;;;;;;;14.13;4.17;;;;;;;1.74;83.38;102495.63;4983546;28;20169;-67
2024/01/30 04:12:41;;;;;;;11.97;5.03;;;;;;;1.75;83.53;102492.28;4986109;28;20031;-65
2024/01/30 04:15:07;;;;;;;10.48;3.60;;;;;;;1.72;83.53;102487.69;4984021;28;20042;-65
2024/01/30 04:17:32;;;;;;;11.17;4.50;;;;;;;1.70;83.92;102491.81;4984355;28;20490;-66
2024/01/30 04:19:58;;;;;;;10.82;3.88;;;;;;;1.66;84.06;102481.84;4984172;28;20042;-65
2024/01/30 04:22:23;;;;;;;11.50;4.37;;;;;;;1.66;84.09;102486.13;4983805;28;20117;-66
2024/01/30 04:24:48;;;;;;;12.50;4.40;;;;;;;1.64;83.66;102488.56;4984100;28;20109;-65
2024/01/30 04:27:14;;;;;;;9.03;3.70;;;;;;;1.62;84.39;102487.50;4983702;28;20160;-65
2024/01/30 04:29:39;;;;;;;13.80;3.90;;;;;;;1.62;84.08;102479.69;4983894;28;20034;-66
2024/01/30 04:32:05;;;;;;;13.63;4.60;;;;;;;1.64;84.29;102485.03;4983981;28;20101;-67
2024/01/30 04:34:30;;;;;;;10.70;3.97;;;;;;;1.66;84.16;102484.44;4984251;28;20035;-67
2024/01/30 04:36:55;;;;;;;9.03;3.97;;;;;;;1.64;83.69;102480.75;4983376;28;20126;-69
2024/01/30 04:39:21;;;;;;;14.33;4.53;;;;;;;1.61;84.17;102484.72;4975987;28;20031;-66
2024/01/30 04:41:48;;;;;;;11.23;4.00;;;;;;;1.56;84.37;102481.66;4971166;28;20039;-67
2024/01/30 04:44:13;;;;;;;10.18;3.92;;;;;;;1.52;84.48;102486.38;4970982;28;20403;-66
2024/01/30 04:46:39;;;;;;;11.97;3.97;;;;;;;1.46;84.64;102491.88;4970487;28;20110;-66
2024/01/30 04:49:04;;;;;;;11.25;4.13;;;;;;;1.42;84.68;102487.09;4970799;28;20081;-67
2024/01/30 04:53:59;;;;;;;10.27;3.78;;;;;;;1.40;85.35;102491.22;5107980;27;20367;-67
2024/01/30 04:56:24;;;;;;;8.37;3.63;;;;;;;1.41;84.89;102490.47;5093697;28;20035;-67
2024/01/30 04:58:50;;;;;;;14.73;4.85;;;;;;;1.38;85.18;102489.22;5087449;28;20123;-67
2024/01/30 05:01:16;;;;;;;14.87;5.13;;;;;;;1.34;85.29;102485.34;5074564;28;20532;-67
2024/01/30 05:03:41;;;;;;;11.02;4.82;;;;;;;1.32;85.88;102489.50;5067354;28;20041;-67
2024/01/30 05:06:07;;;;;;;15.70;4.40;;;;;;;1.27;85.75;102481.22;5075259;28;20078;-68
2024/01/30 05:08:33;;;;;;;12.47;3.83;;;;;;;1.27;86.07;102482.88;5067100;28;20548;-68
2024/01/30 05:11:03;;;;;;;11.70;4.88;;;;;;;1.28;86.15;102482.13;5075171;28;20036;-66
2024/01/30 05:13:29;;;;;;;9.17;4.30;;;;;;;1.30;85.77;102480.59;5068927;28;20151;-67
2024/01/30 05:15:54;;;;;;;11.82;4.57;;;;;;;1.29;86.17;102482.28;5066556;28;20060;-67
2024/01/30 05:18:20;;;;;;;12.57;4.30;;;;;;;1.30;86.24;102483.19;5066825;28;20119;-68
2024/01/30 05:20:45;;;;;;;14.57;4.72;;;;;;;1.29;85.93;102482.28;5066724;28;20533;-66
2024/01/30 05:23:10;;;;;;;11.40;4.43;;;;;;;1.28;85.99;102485.63;5066962;28;20029;-68
2024/01/30 05:25:36;;;;;;;13.53;4.43;;;;;;;1.30;86.01;102480.59;5066673;28;20651;-66
2024/01/30 05:28:01;;;;;;;12.33;5.00;;;;;;;1.32;86.02;102491.19;5066708;28;20040;-66
2024/01/30 05:30:26;;;;;;;13.57;4.90;;;;;;;1.35;86.46;102486.28;5065657;28;20527;-67
2024/01/30 05:32:52;;;;;;;11.00;4.93;;;;;;;1.37;85.99;102484.78;5066698;28;20047;-67
2024/01/30 05:35:18;;;;;;;12.07;4.80;;;;;;;1.37;85.97;102480.50;5066737;28;20481;-67
2024/01/30 05:37:43;;;;;;;11.50;4.20;;;;;;;1.37;86.30;102485.69;5066755;28;20401;-67
2024/01/30 05:40:09;;;;;;;10.60;4.20;;;;;;;1.38;85.71;102481.41;5074894;28;20128;-66
2024/01/30 05:42:34;;;;;;;12.17;4.50;;;;;;;1.41;86.18;102484.31;5075482;28;20283;-66
2024/01/30 05:45:00;;;;;;;10.47;4.47;;;;;;;1.39;85.77;102471.13;5066453;28;20497;-67
2024/01/30 05:47:25;;;;;;;12.47;4.67;;;;;;;1.38;86.13;102471.94;5066516;28;20407;-67
2024/01/30 05:49:50;;;;;;;12.47;4.67;;;;;;;1.41;86.16;102472.22;5066093;28;20503;-67
2024/01/30 05:52:17;;;;;;;13.13;4.60;;;;;;;1.43;86.15;102475.00;5066179;28;20120;-68
2024/01/30 05:54:42;;;;;;;13.13;4.90;;;;;;;1.42;86.14;102473.16;5066417;28;20040;-66
2024/01/30 05:57:08;;;;;;;13.20;5.10;;;;;;;1.43;86.38;102472.41;5065981;28;20163;-67
2024/01/30 05:59:33;;;;;;;12.57;4.50;;;;;;;1.49;86.35;102470.41;5066202;28;20406;-67
2024/01/30 06:01:58;;;;;;;16.33;5.27;;;;;;;1.50;86.46;102474.88;5069999;28;20036;-66
2024/01/30 06:04:24;;;;;;;10.97;4.40;;;;;;;1.53;87.02;102465.69;5057119;28;20283;-66
2024/01/30 06:06:49;;;;;;;10.23;4.23;;;;;;;1.62;86.80;102468.34;5052588;28;20036;-66
2024/01/30 06:09:15;;;;;;;12.00;4.77;;;;;;;1.66;86.38;102470.50;5052654;28;20516;-66
2024/01/30 06:11:40;;;;;;;10.93;4.53;;;;;;;1.72;86.37;102468.53;5053930;28;20104;-66
2024/01/30 06:14:05;;;;;;;13.57;5.87;;;;;;;1.77;86.88;102475.13;5052907;28;20104;-67
2024/01/30 06:16:31;;;;;;;12.33;4.60;;;;;;;1.80;86.41;102475.44;5058643;28;20573;-67
2024/01/30 06:21:26;;;;;;;14.27;5.07;;;;;;;1.86;85.89;102470.88;5056158;28;20407;-68
2024/01/30 06:23:51;;;;;;;13.47;4.27;;;;;;;1.89;85.99;102476.38;5049544;28;20062;-67
2024/01/30 06:26:17;;;;;;;11.83;4.87;;;;;;;1.91;86.07;102469.66;5046802;28;20371;-68
2024/01/30 06:28:42;;;;;;;14.60;4.97;;;;;;;1.95;85.26;102461.38;5047088;28;20040;-67
2024/01/30 06:31:10;;;;;;;12.57;4.93;;;;;;;1.98;85.85;102463.34;5046891;28;20055;-67
2024/01/30 06:36:59;;;;;;;10.63;3.42;;;;;;;2.04;85.82;102464.00;5036117;28;20094;-65
2024/01/30 06:39:26;;;;;;;11.63;4.73;;;;;;;2.07;85.19;102469.53;5046696;28;20753;-64
2024/01/30 06:41:52;;;;;;;12.30;4.43;;;;;;;2.08;85.09;102461.84;5046458;28;20033;-64
2024/01/30 06:44:17;;;;;;;10.70;4.33;;;;;;;2.08;85.13;102460.94;5045614;28;20125;-64
2024/01/30 06:46:43;;;;;;;14.13;4.87;;;;;;;2.11;84.84;102456.97;5046085;28;20464;-64
2024/01/30 06:49:11;;;;;;;11.83;4.87;;;;;;;2.13;84.99;102457.09;5046566;28;20041;-64
2024/01/30 06:51:37;;;;;;;16.50;5.90;;;;;;;2.15;85.14;102456.50;5046618;28;20292;-63
2024/01/30 06:54:05;;;;;;;12.30;5.07;;;;;;;2.18;84.88;102453.28;5046468;28;20047;-63
2024/01/30 06:56:30;;;;;;;11.77;5.00;;;;;;;2.20;84.75;102456.97;5046530;28;20132;-63
2024/01/30 06:58:58;;;;;;;11.73;4.75;;;;;;;2.24;84.55;102458.19;5046399;28;20045;-65
2024/01/30 07:01:28;;;;;;;15.43;5.47;;;;;;;2.25;84.61;102453.13;5048820;28;20038;-65
2024/01/30 07:03:57;;;;;;;12.77;5.05;;;;;;;2.25;84.57;102455.75;5046613;28;20029;-66
2024/01/30 07:06:22;;;;;;;11.55;4.72;;;;;;;2.30;84.66;102456.22;5046117;28;20470;-65
2024/01/30 07:08:49;;;;;;;19.20;5.03;;;;;;;2.36;84.77;102462.97;5046057;28;20037;-65
2024/01/30 07:11:22;;;;;;;13.40;4.80;;;;;;;2.42;84.30;102465.25;5046031;28;20037;-64
2024/01/30 07:13:48;;;;;;;14.40;5.77;;;;;;;2.44;84.70;102461.13;5048556;28;20179;-64
2024/01/30 07:16:15;;;;;;;12.32;4.75;;;;;;;2.45;84.52;102452.53;5046325;28;20101;-66
2024/01/30 07:18:41;;;;;;;15.90;6.07;;;;;;;2.48;84.59;102452.81;5046355;28;20060;-65
2024/01/30 07:21:06;;;;;;;15.90;6.25;;;;;;;2.52;84.31;102462.78;5046277;28;20037;-65
2024/01/30 07:23:33;;;;;;;18.10;5.83;;;;;;;2.53;84.17;102451.59;5044614;28;20044;-65
2024/01/30 07:25:59;;;;;;;12.88;5.35;;;;;;;2.54;84.53;102454.38;5044222;28;20045;-65
2024/01/30 07:28:24;;;;;;;13.83;4.97;;;;;;;2.59;84.08;102450.53;5046242;28;20493;-66
2024/01/30 07:30:50;;;;;;;13.77;5.00;;;;;;;2.63;84.05;102449.13;5043652;28;20132;-64
2024/01/30 07:33:15;;;;;;;12.05;4.85;;;;;;;2.70;83.87;102455.91;5032992;28;20510;-66
2024/01/30 07:35:41;;;;;;;13.97;5.57;;;;;;;2.72;83.78;102450.03;5032836;28;20044;-65
2024/01/30 07:38:06;;;;;;;11.80;4.93;;;;;;;2.78;83.51;102448.06;5032790;28;20060;-65
2024/01/30 07:40:33;;;;;;;12.73;5.50;;;;;;;2.86;83.21;102454.03;5032797;28;20052;-65
2024/01/30 07:42:58;;;;;;;14.93;6.13;;;;;;;2.93;83.20;102452.16;5032769;28;20033;-64
2024/01/30 07:45:25;;;;;;;12.23;5.10;;;;;;;2.98;82.99;102456.16;5032581;28;20383;-65
2024/01/30 07:47:51;;;;;;;17.67;5.73;;;;;;;3.03;82.72;102451.38;5030443;28;20413;-65
2024/01/30 07:50:16;;;;;;;11.38;4.40;;;;;;;3.09;82.17;102451.97;5031141;28;20051;-62
2024/01/30 07:52:42;;;;;;;17.27;5.60;;;;;;;3.14;82.08;102448.13;5032209;28;20167;-65
2024/01/30 07:55:08;;;;;;;11.43;4.30;;;;;;;3.15;81.98;102447.38;5031817;28;20034;-65
2024/01/30 07:57:34;;;;;;;14.45;5.00;;;;;;;3.24;81.78;102455.16;5032350;28;20041;-65
2024/01/30 07:59:59;;;;;;;12.60;4.93;;;;;;;3.28;81.30;102458.22;5031804;28;20057;-65
2024/01/30 08:02:25;;;;;;;16.30;5.70;;;;;;;3.31;81.72;102453.28;5034782;28;20040;-64
2024/01/30 08:04:50;;;;;;;18.70;5.43;;;;;;;3.35;81.13;102449.28;5031128;28;20687;-64
2024/01/30 08:07:17;;;;;;;14.60;4.90;;;;;;;3.40;81.26;102450.66;5031082;28;20116;-65
2024/01/30 08:09:42;;;;;;;13.55;5.22;;;;;;;3.45;81.03;102449.41;5031904;28;20045;-65
2024/01/30 08:12:08;;;;;;;10.80;4.80;;;;;;;3.46;80.71;102443.38;5033766;28;20045;-64
2024/01/30 08:14:33;;;;;;;11.80;4.75;;;;;;;3.56;80.68;102446.09;5031726;28;20040;-65
2024/01/30 08:16:59;;;;;;;14.33;5.40;;;;;;;3.64;80.47;102449.47;5031217;28;20112;-65
2024/01/30 08:19:24;;;;;;;13.27;4.80;;;;;;;3.71;79.96;102447.56;5031733;28;20494;-64
2024/01/30 08:24:31;;;;;;;14.82;5.35;;;;;;;3.85;79.44;102434.09;5108088;27;20387;-65
2024/01/30 08:26:58;;;;;;;14.30;5.53;;;;;;;3.96;79.21;102439.44;5089147;28;20497;-64
2024/01/30 08:29:23;;;;;;;15.05;5.65;;;;;;;4.05;79.10;102435.06;5086219;28;20544;-65
2024/01/30 08:31:48;;;;;;;14.37;6.07;;;;;;;4.13;79.00;102435.00;5067192;28;20035;-65
2024/01/30 08:34:14;;;;;;;12.87;5.30;;;;;;;4.20;78.77;102432.19;5067058;28;20107;-65
2024/01/30 08:36:39;;;;;;;13.67;5.43;;;;;;;4.29;78.21;102434.75;5067098;28;20120;-65
2024/01/30 08:39:05;;;;;;;13.37;5.10;;;;;;;4.38;77.95;102432.06;5066743;28;20290;-66
2024/01/30 08:41:30;;;;;;;15.73;5.80;;;;;;;4.43;77.76;102436.94;5067355;28;20033;-65
2024/01/30 08:43:56;;;;;;;12.90;5.30;;;;;;;4.46;77.01;102429.34;5066949;28;20044;-66
2024/01/30 08:46:21;;;;;;;15.33;5.57;;;;;;;4.54;77.33;102430.97;5066729;28;20044;-65
2024/01/30 08:48:47;;;;;;;16.50;5.13;;;;;;;4.59;76.87;102429.69;5066966;28;20035;-66
2024/01/30 08:51:12;;;;;;;12.73;5.28;;;;;;;4.63;76.55;102423.97;5066835;28;20074;-65
2024/01/30 08:53:38;;;;;;;12.13;5.03;;;;;;;4.74;76.69;102427.53;5066794;28;20449;-65
2024/01/30 08:56:05;;;;;;;13.32;5.28;;;;;;;4.81;76.19;102431.66;5066474;28;20049;-65
2024/01/30 08:58:31;;;;;;;17.58;5.35;;;;;;;4.88;75.81;102426.19;5066846;28;20071;-65
2024/01/30 09:00:56;;;;;;;13.23;5.17;;;;;;;4.91;75.21;102431.69;5070334;28;20107;-66
2024/01/30 09:03:22;;;;;;;14.30;5.20;;;;;;;5.00;75.05;102432.50;5066700;28;20102;-65
2024/01/30 09:05:47;;;;;;;14.03;5.17;;;;;;;5.09;75.15;102431.63;5066562;28;20037;-64
2024/01/30 09:08:12;;;;;;;12.48;4.95;;;;;;;5.17;74.69;102424.47;5066261;28;20052;-64
2024/01/30 09:10:38;;;;;;;13.67;4.60;;;;;;;5.23;74.62;102428.53;5066274;28;20044;-63
2024/01/30 09:13:03;;;;;;;16.37;5.67;;;;;;;5.29;74.21;102428.16;5068024;28;20123;-64
2024/01/30 09:15:29;;;;;;;13.53;5.17;;;;;;;5.36;74.09;102422.69;5065943;28;20040;-63
2024/01/30 09:17:54;;;;;;;13.53;4.90;;;;;;;5.42;74.08;102423.25;5066123;28;20120;-64
2024/01/30 09:20:22;;;;;;;12.63;4.80;;;;;;;5.47;73.30;102419.31;5066537;28;20424;-64
2024/01/30 09:22:47;;;;;;;11.77;5.10;;;;;;;5.54;72.96;102419.06;5065808;28;20123;-64
2024/01/30 09:25:12;;;;;;;13.47;5.30;;;;;;;5.56;72.43;102416.59;5065856;28;20175;-64
2024/01/30 09:27:38;;;;;;;13.37;5.50;;;;;;;5.68;72.35;102421.94;5066009;28;20037;-64
2024/01/30 09:30:04;;;;;;;12.03;4.70;;;;;;;5.77;72.41;102423.69;5065780;28;20479;-65
2024/01/30 09:32:29;;;;;;;11.65;4.75;;;;;;;5.87;72.16;102420.19;5066123;28;20029;-65
2024/01/30 09:34:54;;;;;;;15.03;5.30;;;;;;;5.95;71.47;102419.16;5058530;28;20107;-66
2024/01/30 09:37:20;;;;;;;11.10;4.93;;;;;;;5.99;70.83;102410.75;5052367;28;20037;-66
2024/01/30 09:39:45;;;;;;;12.45;4.82;;;;;;;6.05;70.63;102416.53;5053001;28;20515;-64
2024/01/30 09:42:36;;;;;;;12.20;4.73;;;;;;;6.14;70.15;102412.06;5053303;28;20351;-65
2024/01/30 09:45:05;;;;;;;13.10;4.22;;;;;;;6.23;69.76;102415.44;5051112;28;20036;-66
2024/01/30 09:47:43;;;;;;;10.65;4.13;;;;;;;6.33;69.15;102414.53;5051604;28;20655;-65
2024/01/30 09:50:10;;;;;;;11.10;3.90;;;;;;;6.42;69.20;102412.66;5052477;28;20485;-65
2024/01/30 09:52:36;;;;;;;11.52;4.57;;;;;;;6.53;69.29;102409.22;5052231;28;20033;-66
2024/01/30 09:55:02;;;;;;;11.82;4.50;;;;;;;6.59;69.02;102415.00;5050700;28;20033;-66
2024/01/30 09:57:28;;;;;;;9.95;3.78;;;;;;;6.67;68.84;102407.75;5052596;28;20417;-66
2024/01/30 09:59:56;;;;;;;12.17;4.60;;;;;;;6.71;68.17;102405.50;5053547;28;20041;-65
2024/01/30 10:02:22;;;;;;;15.00;4.80;;;;;;;6.81;68.01;102407.16;5059158;28;20036;-64
2024/01/30 10:04:49;;;;;;;12.33;4.40;;;;;;;6.89;67.62;102406.09;5052356;28;20083;-64
2024/01/30 10:07:14;;;;;;;12.27;4.13;;;;;;;6.94;66.73;102416.22;5049324;28;20047;-65
2024/01/30 10:09:40;;;;;;;9.73;3.93;;;;;;;7.02;66.75;102408.00;5050605;28;20532;-66
2024/01/30 10:14:29;;;;;;;10.00;3.90;;;;;;;7.22;65.06;102408.84;5061670;27;20365;-65
2024/01/30 10:16:55;;;;;;;11.25;4.05;;;;;;;7.27;64.25;102403.94;5043060;28;20032;-66
2024/01/30 10:19:20;;;;;;;10.07;3.58;;;;;;;7.41;64.22;102403.34;5043180;28;20038;-66
2024/01/30 10:21:46;;;;;;;13.73;4.10;;;;;;;7.47;63.13;102405.53;5022575;28;20034;-65
2024/01/30 10:24:13;;;;;;;8.90;4.17;;;;;;;7.55;63.31;102399.19;5016046;28;20124;-65
2024/01/30 10:26:39;;;;;;;11.60;4.45;;;;;;;7.56;62.11;102395.75;5023438;28;20451;-65
2024/01/30 10:29:04;;;;;;;10.70;4.10;;;;;;;7.63;61.67;102395.44;5023572;28;20132;-66
2024/01/30 10:31:30;;;;;;;9.55;3.80;;;;;;;7.67;62.09;102400.16;5022448;28;20046;-67
2024/01/30 10:33:55;;;;;;;11.00;3.93;;;;;;;7.66;61.13;102399.22;5023645;28;20409;-66
2024/01/30 10:36:27;;;;;;;9.40;3.47;;;;;;;7.76;61.65;102380.75;5023394;28;20049;-63
2024/01/30 10:38:59;;;;;;;12.23;3.85;;;;;;;7.85;61.84;102379.59;5023560;28;20033;-63
2024/01/30 10:41:27;;;;;;;12.98;4.38;;;;;;;7.85;60.97;102384.88;5023228;28;20405;-63
2024/01/30 10:44:02;;;;;;;10.50;4.38;;;;;;;7.85;60.58;102379.59;5023453;28;20078;-63
2024/01/30 10:46:31;;;;;;;11.48;4.00;;;;;;;7.87;59.87;102394.72;5023066;28;20080;-63
2024/01/30 10:48:58;;;;;;;10.57;4.30;;;;;;;7.92;60.04;102388.13;5022080;28;20041;-64
2024/01/30 10:51:26;;;;;;;11.30;3.40;;;;;;;7.99;60.36;102389.53;5023158;28;20049;-64
2024/01/30 10:53:53;;;;;;;9.88;4.20;;;;;;;8.07;60.26;102394.56;5023102;28;20073;-63
2024/01/30 10:56:21;;;;;;;8.95;4.40;;;;;;;8.10;60.21;102384.25;5023184;28;20132;-64
2024/01/30 10:58:48;;;;;;;12.65;5.00;;;;;;;8.01;57.94;102388.81;5023330;28;20463;-65
2024/01/30 11:01:15;;;;;;;9.97;4.07;;;;;;;8.10;58.86;102394.78;5015868;28;20042;-64
2024/01/30 11:03:41;;;;;;;10.82;4.13;;;;;;;8.13;58.28;102387.16;5023998;28;20033;-64
2024/01/30 11:06:11;;;;;;;11.20;3.65;;;;;;;8.14;58.71;102380.16;5023302;28;20083;-64
2024/01/30 11:08:37;;;;;;;12.75;4.28;;;;;;;8.18;58.94;102388.41;5023487;28;20459;-63
2024/01/30 11:11:09;;;;;;;10.47;4.07;;;;;;;8.16;58.57;102382.09;5022913;28;20113;-64
2024/01/30 11:13:34;;;;;;;13.05;4.03;;;;;;;8.27;59.02;102379.38;5023032;28;20033;-63
2024/01/30 11:16:01;;;;;;;13.57;4.03;;;;;;;8.33;59.14;102390.41;5022482;28;20094;-64
2024/01/30 11:18:29;;;;;;;10.05;4.45;;;;;;;8.45;58.56;102388.69;5022861;28;20030;-64
2024/01/30 11:20:58;;;;;;;13.38;4.88;;;;;;;8.55;58.79;102380.69;5022489;28;20329;-62
2024/01/30 11:23:26;;;;;;;10.80;4.35;;;;;;;8.62;58.45;102372.44;5023019;28;20057;-63
2024/01/30 11:25:56;;;;;;;12.87;3.83;;;;;;;8.68;58.66;102375.53;5008690;28;20042;-63
2024/01/30 11:28:22;;;;;;;11.80;4.32;;;;;;;8.62;58.22;102377.72;5008689;28;20049;-64
2024/01/30 11:30:50;;;;;;;13.35;4.50;;;;;;;8.60;58.58;102367.06;5009394;28;20169;-63
2024/01/30 11:33:27;;;;;;;14.68;5.28;;;;;;;8.73;58.76;102371.53;5009438;28;20052;-63
2024/01/30 11:35:53;;;;;;;12.45;4.28;;;;;;;8.68;59.00;102370.28;5009357;28;20168;-63
2024/01/30 11:38:18;;;;;;;10.37;4.17;;;;;;;8.65;58.75;102365.69;5009723;28;20022;-64
2024/01/30 11:40:47;;;;;;;12.00;4.57;;;;;;;8.76;58.49;102371.75;5009384;28;20073;-66
2024/01/30 11:43:13;;;;;;;12.05;4.38;;;;;;;8.82;58.57;102369.56;5001932;28;20042;-63
2024/01/30 11:45:39;;;;;;;10.20;4.10;;;;;;;8.79;57.15;102371.97;5009452;28;20125;-66
2024/01/30 11:48:05;;;;;;;11.20;4.32;;;;;;;8.85;57.92;102371.50;5010081;28;20034;-62
2024/01/30 11:50:31;;;;;;;12.00;4.07;;;;;;;8.82;57.43;102366.94;5009798;28;20046;-60
2024/01/30 11:52:56;;;;;;;14.70;4.60;;;;;;;8.88;57.68;102356.81;5009409;28;20038;-65